Time,TemperatureF,DewpointF,PressureIn,WindDirection,WindDirectionDegrees,WindSpeedMPH,WindSpeedGustMPH,Humidity,HourlyPrecipIn,Conditions,Clouds,dailyrainin,SoftwareType,DateUTC
2013-12-26 08:10:00,80.3,73.6,30.00,NE,56,8.0,15.0,80,0.00,,,0.00,Wunderground v.1.15,2013-12-26 12:10:00,
2013-12-26 08:20:00,80.7,74.0,30.00,ESE,105,8.0,8.0,80,0.00,,,0.00,Wunderground v.1.15,2013-12-26 12:20:00,
2013-12-26 08:30:00,81.2,74.1,30.00,ENE,78,7.0,7.0,79,0.00,,,0.00,Wunderground v.1.15,2013-12-26 12:30:00,
2013-12-26 08:40:00,81.4,74.3,30.01,East,86,7.0,9.0,79,0.00,,,0.00,Wunderground v.1.15,2013-12-26 12:40:00,
2013-12-26 08:50:00,81.1,74.0,30.01,NE,55,9.0,13.0,79,0.00,,,0.00,Wunderground v.1.15,2013-12-26 12:50:00,
2013-12-26 09:00:00,81.6,74.5,30.01,ESE,113,8.0,8.0,79,0.00,,,0.00,Wunderground v.1.15,2013-12-26 13:00:00,
2013-12-26 09:10:00,82.0,74.5,30.02,ESE,118,8.0,10.0,78,0.00,,,0.00,Wunderground v.1.15,2013-12-26 13:10:00,
2013-12-26 09:20:00,82.2,74.7,30.02,ESE,105,8.0,8.0,78,0.00,,,0.00,Wunderground v.1.15,2013-12-26 13:20:00,
2013-12-26 09:30:00,82.6,74.7,30.02,ESE,109,8.0,8.0,77,0.00,,,0.00,Wunderground v.1.15,2013-12-26 13:30:00,
2013-12-26 09:40:00,82.6,75.0,30.02,East,90,9.0,11.0,78,0.00,,,0.00,Wunderground v.1.15,2013-12-26 13:40:00,
2013-12-26 09:50:00,82.8,75.2,30.02,ENE,65,8.0,8.0,78,0.00,,,0.00,Wunderground v.1.15,2013-12-26 13:50:00,
2013-12-26 10:00:00,82.4,74.5,30.03,ESE,109,10.0,10.0,77,0.00,,,0.00,Wunderground v.1.15,2013-12-26 14:00:00,
2013-12-26 10:10:00,82.2,74.7,30.03,East,92,9.0,11.0,78,0.00,,,0.00,Wunderground v.1.15,2013-12-26 14:10:00,
2013-12-26 10:20:00,82.0,74.5,30.03,NE,55,10.0,11.0,78,0.00,,,0.00,Wunderground v.1.15,2013-12-26 14:20:00,
2013-12-26 10:30:00,81.6,74.5,30.04,East,85,9.0,9.0,79,0.00,,,0.00,Wunderground v.1.15,2013-12-26 14:30:00,
2013-12-26 10:40:00,81.1,74.0,30.04,East,89,10.0,10.0,79,0.00,,,0.00,Wunderground v.1.15,2013-12-26 14:40:00,
2013-12-26 10:50:00,81.2,74.1,30.04,ENE,72,8.0,11.0,79,0.00,,,0.00,Wunderground v.1.15,2013-12-26 14:50:00,
2013-12-26 11:00:00,81.6,74.5,30.04,East,80,9.0,12.0,79,0.00,,,0.00,Wunderground v.1.15,2013-12-26 15:00:00,
2013-12-26 11:10:00,82.6,75.0,30.04,East,80,9.0,9.0,78,0.00,,,0.00,Wunderground v.1.15,2013-12-26 15:10:00,
2013-12-26 11:20:00,82.6,75.0,30.04,East,80,9.0,9.0,78,0.00,,,0.00,Wunderground v.1.15,2013-12-26 15:20:00,
2013-12-26 11:30:00,82.2,74.7,30.04,East,85,8.0,8.0,78,0.00,,,0.00,Wunderground v.1.15,2013-12-26 15:30:00,
2013-12-26 11:40:00,82.0,75.2,30.04,ENE,67,8.0,11.0,80,0.00,,,0.00,Wunderground v.1.15,2013-12-26 15:40:00,
2013-12-26 11:50:00,82.2,75.0,30.04,ENE,76,9.0,12.0,79,0.00,,,0.00,Wunderground v.1.15,2013-12-26 15:50:00,
2013-12-26 12:00:00,83.6,76.0,30.03,ENE,76,9.0,13.0,78,0.00,,,0.00,Wunderground v.1.15,2013-12-26 16:00:00,
2013-12-26 12:10:00,82.6,74.7,30.03,ENE,69,9.0,13.0,77,0.00,,,0.00,Wunderground v.1.15,2013-12-26 16:10:00,
2013-12-26 12:20:00,82.6,75.0,30.03,East,87,9.0,9.0,78,0.00,,,0.00,Wunderground v.1.15,2013-12-26 16:20:00,
2013-12-26 12:30:00,83.2,75.2,30.03,ESE,102,9.0,15.0,77,0.00,,,0.00,Wunderground v.1.15,2013-12-26 16:30:00,
2013-12-26 12:40:00,83.2,74.8,30.02,ENE,69,9.0,9.0,76,0.00,,,0.00,Wunderground v.1.15,2013-12-26 16:40:00,
2013-12-26 12:50:00,83.4,75.0,30.02,ESE,120,9.0,9.0,76,0.00,,,0.00,Wunderground v.1.15,2013-12-26 16:50:00,
2013-12-26 13:00:00,83.0,75.0,30.01,NE,47,9.0,14.0,77,0.00,,,0.00,Wunderground v.1.15,2013-12-26 17:00:00,
2013-12-26 13:10:00,83.2,75.2,30.01,ESE,102,10.0,12.0,77,0.00,,,0.00,Wunderground v.1.15,2013-12-26 17:10:00,
2013-12-26 13:20:00,83.4,75.0,30.01,ENE,72,9.0,10.0,76,0.00,,,0.00,Wunderground v.1.15,2013-12-26 17:20:00,
2013-12-26 13:30:00,83.2,75.2,30.00,SE,128,10.0,11.0,77,0.00,,,0.00,Wunderground v.1.15,2013-12-26 17:30:00,
2013-12-26 13:40:00,83.0,75.0,30.00,ESE,116,9.0,9.0,77,0.00,,,0.00,Wunderground v.1.15,2013-12-26 17:40:00,
2013-12-26 13:50:00,83.2,75.2,30.00,ESE,112,7.0,10.0,77,0.00,,,0.00,Wunderground v.1.15,2013-12-26 17:50:00,
2013-12-26 14:00:00,83.0,75.4,29.99,ESE,102,8.0,8.0,78,0.00,,,0.00,Wunderground v.1.15,2013-12-26 18:00:00,
2013-12-26 14:10:00,83.2,75.6,29.99,ENE,78,7.0,9.0,78,0.00,,,0.00,Wunderground v.1.15,2013-12-26 18:10:00,
2013-12-26 14:20:00,83.0,75.4,29.99,East,90,8.0,8.0,78,0.00,,,0.00,Wunderground v.1.15,2013-12-26 18:20:00,
2013-12-26 14:30:00,82.6,74.7,29.99,East,90,9.0,9.0,77,0.00,,,0.00,Wunderground v.1.15,2013-12-26 18:30:00,
2013-12-26 14:40:00,82.8,73.7,29.99,ENE,70,8.0,8.0,74,0.00,,,0.00,Wunderground v.1.15,2013-12-26 18:40:00,
2013-12-26 14:50:00,82.6,75.0,29.99,ESE,119,9.0,9.0,78,0.00,,,0.00,Wunderground v.1.15,2013-12-26 18:50:00,
2013-12-26 15:00:00,82.6,75.4,29.98,ESE,110,8.0,9.0,79,0.00,,,0.00,Wunderground v.1.15,2013-12-26 19:00:00,
2013-12-26 15:10:00,82.6,75.4,29.98,East,96,8.0,9.0,79,0.00,,,0.00,Wunderground v.1.15,2013-12-26 19:10:00,
2013-12-26 15:20:00,82.2,75.0,29.98,ESE,122,9.0,9.0,79,0.00,,,0.00,Wunderground v.1.15,2013-12-26 19:20:00,
2013-12-26 15:30:00,82.4,75.2,29.99,East,81,7.0,8.0,79,0.00,,,0.00,Wunderground v.1.15,2013-12-26 19:30:00,
2013-12-26 15:40:00,82.4,75.2,29.98,East,96,7.0,7.0,79,0.00,,,0.00,Wunderground v.1.15,2013-12-26 19:40:00,
2013-12-26 15:50:00,82.2,75.0,29.98,ESE,110,8.0,11.0,79,0.00,,,0.00,Wunderground v.1.15,2013-12-26 19:50:00,
2013-12-26 16:00:00,82.4,75.2,29.98,ESE,106,7.0,7.0,79,0.00,,,0.00,Wunderground v.1.15,2013-12-26 20:00:00,
2013-12-26 16:10:00,81.2,73.7,29.99,East,85,7.0,9.0,78,0.00,,,0.00,Wunderground v.1.15,2013-12-26 20:10:00,
2013-12-26 16:20:00,81.2,74.8,29.99,ESE,102,7.0,7.0,81,0.00,,,0.00,Wunderground v.1.15,2013-12-26 20:20:00,
2013-12-26 16:30:00,80.9,74.9,29.99,ESE,110,6.0,7.0,82,0.00,,,0.00,Wunderground v.1.15,2013-12-26 20:30:00,
2013-12-26 16:40:00,80.3,74.3,29.99,ENE,64,7.0,10.0,82,0.00,,,0.00,Wunderground v.1.15,2013-12-26 20:40:00,
2013-12-26 16:50:00,79.8,74.5,29.99,ENE,76,8.0,8.0,84,0.00,,,0.00,Wunderground v.1.15,2013-12-26 20:50:00,
2013-12-26 17:00:00,78.1,72.2,30.00,East,88,9.0,9.0,82,0.00,,,0.00,Wunderground v.1.15,2013-12-26 21:00:00,
2013-12-26 17:10:00,78.3,73.4,29.99,East,100,5.0,5.0,85,0.00,,,0.00,Wunderground v.1.15,2013-12-26 21:10:00,
2013-12-26 17:20:00,77.9,74.4,29.99,ENE,68,5.0,5.0,89,0.14,,,0.04,Wunderground v.1.15,2013-12-26 21:20:00,
2013-12-26 17:30:00,77.2,74.0,30.00,East,93,4.0,4.0,90,0.04,,,0.04,Wunderground v.1.15,2013-12-26 21:30:00,
2013-12-26 17:40:00,77.0,74.5,30.00,East,98,2.0,4.0,92,0.00,,,0.04,Wunderground v.1.15,2013-12-26 21:40:00,
2013-12-26 17:50:00,77.0,74.5,30.00,East,93,3.0,3.0,92,0.00,,,0.04,Wunderground v.1.15,2013-12-26 21:50:00,
2013-12-26 18:00:00,77.2,74.7,30.01,East,82,6.0,6.0,92,0.00,,,0.04,Wunderground v.1.15,2013-12-26 22:00:00,
2013-12-26 18:10:00,77.0,74.8,30.01,ENE,78,7.0,13.0,93,0.00,,,0.04,Wunderground v.1.15,2013-12-26 22:10:00,
2013-12-26 18:20:00,77.0,74.5,30.01,East,82,7.0,10.0,92,0.00,,,0.04,Wunderground v.1.15,2013-12-26 22:20:00,
2013-12-26 18:30:00,77.0,74.5,30.01,East,90,8.0,8.0,92,0.00,,,0.04,Wunderground v.1.15,2013-12-26 22:30:00,
2013-12-26 18:40:00,77.0,74.5,30.02,East,92,6.0,7.0,92,0.00,,,0.04,Wunderground v.1.15,2013-12-26 22:40:00,
2013-12-26 18:50:00,77.0,74.5,30.02,ESE,113,7.0,7.0,92,0.00,,,0.04,Wunderground v.1.15,2013-12-26 22:50:00,
2013-12-26 19:00:00,77.0,74.5,30.02,East,94,7.0,10.0,92,0.00,,,0.04,Wunderground v.1.15,2013-12-26 23:00:00,
2013-12-26 19:10:00,77.2,74.7,30.03,ENE,76,6.0,6.0,92,0.00,,,0.04,Wunderground v.1.15,2013-12-26 23:10:00,
2013-12-26 19:20:00,77.4,74.9,30.03,ENE,72,6.0,7.0,92,0.00,,,0.04,Wunderground v.1.15,2013-12-26 23:20:00,
2013-12-26 19:30:00,77.4,74.9,30.03,ESE,109,7.0,12.0,92,0.00,,,0.04,Wunderground v.1.15,2013-12-26 23:30:00,
2013-12-26 19:40:00,77.2,74.4,30.04,East,82,8.0,8.0,91,0.00,,,0.04,Wunderground v.1.15,2013-12-26 23:40:00,
2013-12-26 19:50:00,77.2,74.0,30.04,East,101,9.0,9.0,90,0.00,,,0.04,Wunderground v.1.15,2013-12-26 23:50:00,
2013-12-26 20:00:00,77.6,74.8,30.04,ENE,74,7.0,7.0,91,0.00,,,0.04,Wunderground v.1.15,2013-12-27 00:00:00,
2013-12-26 20:10:00,77.4,74.2,30.05,East,82,6.0,7.0,90,0.00,,,0.04,Wunderground v.1.15,2013-12-27 00:10:00,
2013-12-26 20:20:00,77.4,74.2,30.05,NE,54,8.0,8.0,90,0.00,,,0.04,Wunderground v.1.15,2013-12-27 00:20:00,
2013-12-26 20:30:00,77.7,74.2,30.05,ENE,67,8.0,9.0,89,0.00,,,0.04,Wunderground v.1.15,2013-12-27 00:30:00,
2013-12-26 20:40:00,77.7,74.2,30.06,East,88,6.0,9.0,89,0.00,,,0.04,Wunderground v.1.15,2013-12-27 00:40:00,
2013-12-26 20:50:00,77.7,74.2,30.06,East,94,7.0,7.0,89,0.00,,,0.04,Wunderground v.1.15,2013-12-27 00:50:00,
2013-12-26 21:00:00,77.7,74.2,30.06,East,82,7.0,7.0,89,0.00,,,0.04,Wunderground v.1.15,2013-12-27 01:00:00,
2013-12-26 21:10:00,77.9,74.4,30.06,ENE,69,8.0,8.0,89,0.00,,,0.04,Wunderground v.1.15,2013-12-27 01:10:00,
2013-12-26 21:20:00,77.6,73.4,30.06,ENE,59,9.0,9.0,87,0.00,,,0.04,Wunderground v.1.15,2013-12-27 01:20:00,
2013-12-26 21:30:00,77.4,73.6,30.06,East,84,8.0,8.0,88,0.00,,,0.04,Wunderground v.1.15,2013-12-27 01:30:00,
2013-12-26 21:40:00,77.6,74.1,30.06,ENE,67,7.0,7.0,89,0.00,,,0.04,Wunderground v.1.15,2013-12-27 01:40:00,
2013-12-26 21:50:00,77.4,73.9,30.06,ENE,72,5.0,10.0,89,0.00,,,0.04,Wunderground v.1.15,2013-12-27 01:50:00,
2013-12-26 22:00:00,77.4,73.6,30.06,East,92,8.0,11.0,88,0.00,,,0.04,Wunderground v.1.15,2013-12-27 02:00:00,
2013-12-26 22:10:00,77.6,73.4,30.06,East,89,8.0,8.0,87,0.00,,,0.04,Wunderground v.1.15,2013-12-27 02:10:00,
2013-12-26 22:20:00,77.9,73.7,30.06,ENE,72,8.0,8.0,87,0.00,,,0.04,Wunderground v.1.15,2013-12-27 02:20:00,
2013-12-26 22:30:00,77.7,73.5,30.06,ENE,74,8.0,10.0,87,0.00,,,0.04,Wunderground v.1.15,2013-12-27 02:30:00,
2013-12-26 22:40:00,77.9,74.1,30.06,East,98,7.0,7.0,88,0.00,,,0.04,Wunderground v.1.15,2013-12-27 02:40:00,
2013-12-26 22:50:00,77.9,74.1,30.06,East,80,6.0,6.0,88,0.00,,,0.04,Wunderground v.1.15,2013-12-27 02:50:00,
2013-12-26 23:00:00,77.6,73.4,30.06,East,90,7.0,10.0,87,0.00,,,0.04,Wunderground v.1.15,2013-12-27 03:00:00,
2013-12-26 23:10:00,77.7,73.2,30.06,ENE,76,6.0,7.0,86,0.00,,,0.04,Wunderground v.1.15,2013-12-27 03:10:00,
2013-12-26 23:20:00,77.7,73.5,30.06,ENE,76,6.0,13.0,87,0.00,,,0.04,Wunderground v.1.15,2013-12-27 03:20:00,